Yukon, Missouri
Current Conditions -  °F | °C
As of 8:53 AM on Sunday 21 Dec 2014 (Local Time) from KUNO Reporting Station
Overcast Overcast  
Wind Chill: 33°   Ceiling: 2600
Heat Index: 38°   Visibility: 7mi
Dew Point: 34°   Wind: 7mph
Humidity: 86%   Direction: 140°SE
Pressure: 30.15"   Gusts: NA
Location:  37.27°N, 91.85°W
Report Text: KUNO 211453Z AUTO 14006KT 7SM FEW008 OVC026 03/01 A3015 RMK AO2 SLP216 T00330011 58006 $
Loading
Personal Weather Stations






























Interactive Weather Map New forecast layout! Learn more

10-Day Weather Forecast

Advertisements
Track Severe Weather on mobile